This is the latest recevied weather packets stored in our database for station/object KE5VT. If no packets are shown the sender has not sent any weather packets the latest 10 day(s).
| Time | Temp. | Humidity | Pressure | Rain* | Wind** | Luminosity | Snow |
|---|---|---|---|---|---|---|---|
| 1778010051 | 25.56° C | 39% | 1011.1 hPa | 0 mm | - | 119 W/m² | - |
| 1778009749 | 26.11° C | 39% | 1011.2 hPa | 0 mm | - | 498 W/m² | - |
| 1778009446 | 25° C | 41% | 1011.5 hPa | 0 mm | - | 529 W/m² | - |
| 1778009145 | 25.56° C | 40% | 1011.4 hPa | 0 mm | - | 116 W/m² | - |
| 1778008842 | 26.11° C | 39% | 1011.3 hPa | 0 mm | - | 560 W/m² | - |
| 1778008540 | 25.56° C | 40% | 1011.5 hPa | 0 mm | - | 427 W/m² | - |
| 1778008238 | 26.11° C | 38% | 1011.5 hPa | 0 mm | - | 147 W/m² | - |
| 1778007932 | 26.11° C | 39% | 1011.7 hPa | 0 mm | - | 173 W/m² | - |
| 1778007629 | 26.67° C | 38% | 1011.6 hPa | 0 mm | - | 147 W/m² | - |
| 1778007325 | 26.11° C | 38% | 1011.6 hPa | 0 mm | - | 403 W/m² | - |
| 1778007022 | 26.11° C | 38% | 1011.9 hPa | 0 mm | - | 773 W/m² | - |
| 1778006719 | 25.56° C | 40% | 1011.9 hPa | 0 mm | - | 106 W/m² | - |
| 1778006416 | 26.11° C | 38% | 1012 hPa | 0 mm | - | 730 W/m² | - |
| 1778006113 | 26.11° C | 38% | 1012.1 hPa | 0 mm | - | 272 W/m² | - |
| 1778005810 | 25.56° C | 40% | 1012.2 hPa | 0 mm | - | 186 W/m² | - |
| 1778005506 | 25° C | 40% | 1012.1 hPa | 0 mm | - | 155 W/m² | - |
| 1778005202 | 26.11° C | 38% | 1012.3 hPa | 0 mm | - | 750 W/m² | - |
| 1778004899 | 26.11° C | 38% | 1012.3 hPa | 0 mm | - | 750 W/m² | - |
| 1778004596 | 25.56° C | 39% | 1012.3 hPa | 0 mm | - | 573 W/m² | - |
| 1778004292 | 25.56° C | 39% | 1012.4 hPa | 0 mm | - | 490 W/m² | - |
| 1778003989 | 25.56° C | 38% | 1012.2 hPa | 0 mm | - | 269 W/m² | - |
| 1778003685 | 26.11° C | 41% | 1012.6 hPa | 0 mm | - | 833 W/m² | - |
| 1778003382 | 25.56° C | 41% | 1012.5 hPa | 0 mm | - | 295 W/m² | - |
| 1778003079 | 26.11° C | 38% | 1012.5 hPa | 0 mm | - | 516 W/m² | - |
| 1778002776 | 25.56° C | 39% | 1012.4 hPa | 0 mm | - | 769 W/m² | - |
* Rain latest hour (hover to see other rain measurements)
** Current wind speed in m/s (hover to see current wind gust speed)